Time;durP1;ratioP1;P1;durP2;ratioP2;P2;SDS_P1;SDS_P2;PMS_P1;PMS_P2;Temp;Humidity;BMP_temperature;BMP_pressure;BME280_temperature;BME280_humidity;BME280_pressure;Samples;Min_cycle;Max_cycle;Signal;HPM_P1;HPM_P2
2023/03/12 00:02:03;;;;;;;3.85;2.47;;;;;;;5.31;65.85;93979.47;5014637;28;20489;-80
2023/03/12 00:04:30;;;;;;;6.47;2.42;;;;;;;5.34;65.39;93984.31;5013899;28;20824;-79
2023/03/12 00:06:55;;;;;;;6.03;2.42;;;;;;;5.37;65.18;93985.69;5014643;28;20433;-79
2023/03/12 00:09:22;;;;;;;6.40;2.90;;;;;;;5.30;64.15;93991.72;5015287;28;20410;-80
2023/03/12 00:11:47;;;;;;;4.97;2.72;;;;;;;5.14;64.56;93988.69;5014635;28;20485;-80
2023/03/12 00:14:13;;;;;;;5.23;2.87;;;;;;;5.14;64.46;93993.91;5014343;28;20793;-79
2023/03/12 00:16:39;;;;;;;7.30;3.20;;;;;;;4.83;65.22;93997.88;5014703;28;20418;-80
2023/03/12 00:19:04;;;;;;;8.10;3.03;;;;;;;4.97;66.09;94005.72;5013832;28;20418;-81
2023/03/12 00:21:30;;;;;;;6.47;2.90;;;;;;;4.96;66.09;94006.72;5014289;28;20426;-80
2023/03/12 00:23:55;;;;;;;6.03;3.17;;;;;;;4.97;65.56;94009.13;5013885;28;20445;-79
2023/03/12 00:26:21;;;;;;;4.57;3.27;;;;;;;4.93;65.25;94008.72;5014502;28;20454;-78
2023/03/12 00:28:48;;;;;;;7.10;3.53;;;;;;;4.84;65.58;93986.41;5014493;28;20472;-79
2023/03/12 00:31:17;;;;;;;6.28;3.60;;;;;;;4.80;64.95;93997.44;5013745;28;20429;-79
2023/03/12 00:33:44;;;;;;;6.30;3.28;;;;;;;4.71;65.34;94002.03;5014032;28;20497;-79
2023/03/12 00:36:09;;;;;;;5.88;3.30;;;;;;;4.87;65.89;94025.16;5012670;28;21096;-79
2023/03/12 00:38:35;;;;;;;6.22;3.30;;;;;;;4.87;66.02;94030.34;5014486;28;20422;-80
2023/03/12 00:41:00;;;;;;;14.00;3.87;;;;;;;4.89;65.84;94030.16;5015314;28;20184;-79
2023/03/12 00:43:26;;;;;;;5.83;3.50;;;;;;;4.85;66.08;94034.16;5013556;28;20927;-79
2023/03/12 00:45:51;;;;;;;7.73;3.20;;;;;;;4.83;65.69;94023.94;5014351;28;20537;-79
2023/03/12 00:48:16;;;;;;;5.47;3.30;;;;;;;4.92;65.81;94032.41;5013873;28;20467;-81
2023/03/12 00:50:42;;;;;;;5.40;3.00;;;;;;;4.92;66.11;94028.00;5013749;28;20470;-79
2023/03/12 00:53:09;;;;;;;7.80;3.33;;;;;;;4.93;65.78;94028.75;5014284;28;20418;-80
2023/03/12 00:55:34;;;;;;;9.57;3.53;;;;;;;4.85;65.26;94026.34;5014172;28;20505;-80
2023/03/12 00:57:59;;;;;;;6.73;3.27;;;;;;;4.83;65.96;94031.78;5014083;28;20858;-80
2023/03/12 01:00:25;;;;;;;6.47;3.35;;;;;;;4.80;65.84;94029.53;5014589;28;20501;-79
2023/03/12 01:02:50;;;;;;;5.30;3.00;;;;;;;4.77;66.51;94034.34;5014073;28;20517;-79
2023/03/12 01:05:16;;;;;;;4.43;2.58;;;;;;;4.67;66.01;94029.47;5014000;28;20477;-79
2023/03/12 01:07:42;;;;;;;3.47;3.00;;;;;;;4.65;66.28;94034.09;5014791;28;20187;-79
2023/03/12 01:10:08;;;;;;;5.13;3.13;;;;;;;4.70;66.12;94023.88;5013707;28;20433;-79
2023/03/12 01:12:34;;;;;;;6.20;3.17;;;;;;;4.65;65.85;94026.28;5013760;28;20514;-80
2023/03/12 01:15:00;;;;;;;5.20;3.00;;;;;;;4.70;65.93;94036.91;5013049;28;21172;-80
2023/03/12 01:17:25;;;;;;;4.95;3.50;;;;;;;4.69;65.53;94040.53;5012984;28;20517;-79
2023/03/12 01:19:51;;;;;;;4.20;3.27;;;;;;;4.51;65.73;94042.84;5012935;28;20521;-79
2023/03/12 01:22:16;;;;;;;3.63;2.80;;;;;;;4.58;66.42;94042.91;5013065;28;20461;-80
2023/03/12 01:24:42;;;;;;;6.47;2.80;;;;;;;4.59;66.34;94060.94;5012675;28;20541;-80
2023/03/12 01:27:07;;;;;;;6.60;3.30;;;;;;;4.48;66.93;94056.28;5013046;28;20446;-80
2023/03/12 01:29:32;;;;;;;4.38;2.90;;;;;;;4.47;66.63;94039.03;5013411;28;20418;-80
2023/03/12 01:31:58;;;;;;;5.97;3.60;;;;;;;4.32;67.13;94056.59;5012866;28;20430;-79
2023/03/12 01:34:23;;;;;;;4.43;3.40;;;;;;;4.33;67.94;94051.19;5013131;28;20410;-80
2023/03/12 01:36:49;;;;;;;5.07;3.47;;;;;;;4.21;67.11;94050.13;5012930;28;20948;-80
2023/03/12 01:39:14;;;;;;;4.53;2.93;;;;;;;4.22;67.76;94027.50;5012932;28;20504;-79
2023/03/12 01:41:40;;;;;;;4.37;2.87;;;;;;;4.45;67.45;94041.03;5014047;28;20176;-80
2023/03/12 01:44:06;;;;;;;4.07;2.97;;;;;;;4.43;67.19;94048.22;5012913;28;20453;-79
2023/03/12 01:46:37;;;;;;;7.57;3.25;;;;;;;4.25;67.77;94042.72;5012607;28;20426;-79
2023/03/12 01:49:20;;;;;;;4.47;3.28;;;;;;;4.34;68.08;94042.38;5012510;28;20422;-79
2023/03/12 01:51:53;;;;;;;5.20;3.07;;;;;;;4.39;66.98;94036.59;5012516;28;20437;-79
2023/03/12 01:54:24;;;;;;;4.75;3.40;;;;;;;4.12;67.00;93992.19;5012269;28;20913;-78
2023/03/12 01:56:50;;;;;;;5.95;2.78;;;;;;;4.31;67.32;94014.13;5013544;28;20441;-79
2023/03/12 01:59:22;;;;;;;4.35;2.90;;;;;;;4.24;66.33;94017.69;5012061;28;20425;-79
2023/03/12 02:01:48;;;;;;;4.60;3.47;;;;;;;4.08;67.45;94003.97;5013959;28;20179;-80
2023/03/12 02:04:16;;;;;;;5.47;4.05;;;;;;;4.06;67.75;94021.59;5011123;28;20450;-79
2023/03/12 02:06:49;;;;;;;4.40;3.50;;;;;;;4.25;67.18;94045.31;5005179;28;20417;-78
2023/03/12 02:09:18;;;;;;;5.40;3.40;;;;;;;4.29;67.43;94052.56;5013425;28;20180;-78
2023/03/12 02:11:43;;;;;;;5.40;3.30;;;;;;;4.32;67.11;94056.59;5011906;28;20497;-78
2023/03/12 02:14:09;;;;;;;4.50;3.47;;;;;;;4.14;66.71;94029.25;5012431;28;20519;-78
2023/03/12 02:16:34;;;;;;;4.47;3.07;;;;;;;4.35;66.85;94058.81;4995758;28;20667;-79
2023/03/12 02:19:03;;;;;;;8.03;3.40;;;;;;;4.33;67.17;94045.16;5013271;28;20184;-78
2023/03/12 02:21:32;;;;;;;6.28;3.60;;;;;;;4.33;67.46;94052.97;5011699;28;20417;-79
2023/03/12 02:24:23;;;;;;;7.83;3.13;;;;;;;4.35;67.23;94058.81;4986343;28;20235;-78
2023/03/12 02:26:49;;;;;;;4.37;3.10;;;;;;;4.39;66.98;94057.44;5005822;28;20414;-77
2023/03/12 02:29:15;;;;;;;4.30;2.93;;;;;;;4.21;67.04;94036.31;4998551;28;20195;-77
2023/03/12 02:31:49;;;;;;;4.82;3.30;;;;;;;4.40;67.05;94067.69;4998332;28;20511;-78
2023/03/12 02:34:15;;;;;;;3.92;3.17;;;;;;;4.36;66.52;94073.44;4999879;28;20412;-79
2023/03/12 02:36:40;;;;;;;7.27;3.23;;;;;;;4.29;66.86;94065.59;5002110;28;20180;-80
2023/03/12 02:39:05;;;;;;;4.20;3.20;;;;;;;4.36;66.62;94082.06;5001976;28;20184;-77
2023/03/12 02:41:40;;;;;;;5.72;3.13;;;;;;;4.31;67.27;94081.03;4996504;28;20476;-81
2023/03/12 02:44:28;;;;;;;6.72;2.92;;;;;;;4.34;67.70;94084.06;5002942;28;20445;-80
2023/03/12 02:46:56;;;;;;;4.65;3.30;;;;;;;4.35;67.68;94084.84;5000144;28;20508;-79
2023/03/12 02:49:25;;;;;;;5.83;3.03;;;;;;;4.30;68.17;94084.63;4998239;28;20177;-78
2023/03/12 02:51:51;;;;;;;7.40;3.83;;;;;;;4.08;67.71;94061.25;5003758;28;20194;-78
2023/03/12 02:54:18;;;;;;;6.73;3.20;;;;;;;4.26;67.86;94104.22;5000987;28;20303;-77
2023/03/12 02:56:43;;;;;;;5.30;3.30;;;;;;;4.19;68.09;94091.19;4995113;28;20428;-77
2023/03/12 02:59:16;;;;;;;6.50;3.50;;;;;;;3.98;68.44;94071.19;5002706;28;20172;-77
2023/03/12 03:01:42;;;;;;;6.88;3.78;;;;;;;4.10;68.70;94100.94;5008832;28;20845;-78
2023/03/12 03:04:10;;;;;;;5.78;4.05;;;;;;;4.10;68.66;94106.13;5002753;28;20446;-78
2023/03/12 03:06:38;;;;;;;6.37;4.00;;;;;;;4.03;68.84;94102.69;4999213;28;20907;-79
2023/03/12 03:09:04;;;;;;;6.73;4.10;;;;;;;3.68;68.96;94052.38;5004809;28;20420;-78
2023/03/12 03:11:30;;;;;;;9.68;4.78;;;;;;;3.89;69.35;94079.38;4993883;28;20434;-79
2023/03/12 03:13:56;;;;;;;7.88;4.25;;;;;;;3.88;69.31;94093.38;4991872;28;20424;-79
2023/03/12 03:16:22;;;;;;;4.40;3.30;;;;;;;3.98;69.13;94101.66;5009028;28;20612;-78
2023/03/12 03:18:48;;;;;;;6.22;3.70;;;;;;;4.04;69.08;94106.91;5007047;28;20421;-78
2023/03/12 03:21:16;;;;;;;6.78;5.47;;;;;;;3.86;68.88;94109.16;4992154;28;20431;-78
2023/03/12 03:23:43;;;;;;;5.60;4.28;;;;;;;3.62;69.51;94086.16;4999562;28;20442;-78
2023/03/12 03:26:08;;;;;;;7.93;3.30;;;;;;;3.58;69.23;94071.88;5011770;28;20231;-79
2023/03/12 03:28:34;;;;;;;5.63;3.57;;;;;;;3.71;69.11;94087.63;5012482;28;20248;-77
2023/03/12 03:31:00;;;;;;;4.20;3.00;;;;;;;3.87;68.76;94100.38;5010989;28;20441;-77
2023/03/12 03:33:31;;;;;;;5.13;3.40;;;;;;;3.77;68.40;94073.84;5010888;28;20418;-77
2023/03/12 03:35:58;;;;;;;4.80;2.87;;;;;;;3.86;68.55;94098.75;5012367;28;20392;-78
2023/03/12 03:38:25;;;;;;;4.18;3.00;;;;;;;3.67;68.12;94068.97;5011217;28;20501;-78
2023/03/12 03:40:51;;;;;;;5.50;3.53;;;;;;;3.87;67.77;94091.75;5012216;28;20080;-78
2023/03/12 03:43:16;;;;;;;5.20;3.90;;;;;;;3.95;67.71;94107.22;5011212;28;20430;-80
2023/03/12 03:45:43;;;;;;;6.83;4.83;;;;;;;4.01;68.01;94116.88;5011089;28;20437;-78
2023/03/12 03:48:12;;;;;;;4.25;3.50;;;;;;;3.94;67.65;94127.25;5010869;28;20521;-79
2023/03/12 03:50:39;;;;;;;5.30;3.30;;;;;;;3.99;67.52;94122.28;5010512;28;20422;-79
2023/03/12 03:53:05;;;;;;;5.17;3.60;;;;;;;3.80;67.58;94083.91;5010964;28;20429;-80
2023/03/12 03:55:36;;;;;;;13.57;5.35;;;;;;;3.83;67.10;94095.72;5009945;28;20790;-78
2023/03/12 03:58:01;;;;;;;8.87;3.47;;;;;;;3.78;66.34;94127.53;5010762;28;20430;-78
2023/03/12 04:00:26;;;;;;;4.17;2.87;;;;;;;3.70;67.52;94132.84;5010525;28;20432;-78
2023/03/12 04:02:52;;;;;;;5.17;2.80;;;;;;;3.70;67.94;94141.47;5010361;28;21008;-79
2023/03/12 04:05:18;;;;;;;4.33;3.03;;;;;;;3.58;67.31;94129.13;5010542;28;20435;-78
2023/03/12 04:07:44;;;;;;;5.82;3.13;;;;;;;3.62;67.13;94149.41;5010412;28;20499;-78
2023/03/12 04:10:10;;;;;;;5.90;3.57;;;;;;;3.56;66.84;94150.13;5010008;28;20502;-79
2023/03/12 04:12:35;;;;;;;3.83;2.88;;;;;;;3.50;67.10;94152.66;5011977;28;20410;-78
2023/03/12 04:15:01;;;;;;;3.83;2.92;;;;;;;3.50;66.32;94155.25;5010315;28;20430;-78
2023/03/12 04:17:26;;;;;;;4.50;2.40;;;;;;;3.61;66.74;94163.41;5011855;28;20181;-78
2023/03/12 04:19:51;;;;;;;6.22;2.78;;;;;;;3.46;64.82;94152.22;5010607;28;20977;-78
2023/03/12 04:22:17;;;;;;;5.77;2.73;;;;;;;3.00;65.18;94112.75;5009882;28;20854;-78
2023/03/12 04:24:42;;;;;;;5.37;2.97;;;;;;;3.40;65.96;94168.56;5009811;28;20450;-79
2023/03/12 04:27:08;;;;;;;4.93;2.50;;;;;;;3.44;64.58;94172.44;5010601;28;20417;-79
2023/03/12 04:29:33;;;;;;;5.67;2.97;;;;;;;3.41;65.44;94164.97;5011957;28;20407;-79
2023/03/12 04:31:58;;;;;;;4.60;2.63;;;;;;;3.41;64.94;94178.00;5009947;28;20427;-80
2023/03/12 04:34:24;;;;;;;4.00;2.70;;;;;;;3.36;65.38;94175.94;5010286;28;20422;-78
2023/03/12 04:36:49;;;;;;;6.23;3.77;;;;;;;3.50;64.58;94189.09;5012529;28;20448;-80
2023/03/12 04:39:19;;;;;;;5.55;3.33;;;;;;;3.42;64.97;94170.00;5014507;28;20426;-78
2023/03/12 04:41:44;;;;;;;6.88;3.78;;;;;;;3.53;64.14;94189.53;5013129;28;20411;-79
2023/03/12 04:44:10;;;;;;;5.60;3.17;;;;;;;3.56;64.95;94190.94;5013220;28;20438;-78
2023/03/12 04:46:36;;;;;;;4.57;2.70;;;;;;;3.58;64.04;94199.38;5014529;28;20422;-78
2023/03/12 04:49:02;;;;;;;5.00;3.13;;;;;;;3.61;64.40;94193.81;5013302;28;20418;-79
2023/03/12 04:51:28;;;;;;;4.30;2.57;;;;;;;3.60;64.43;94197.41;5013784;28;20951;-79
2023/03/12 04:53:54;;;;;;;4.40;2.80;;;;;;;3.63;63.85;94212.66;5014927;28;20215;-78
2023/03/12 04:56:19;;;;;;;7.50;2.50;;;;;;;3.62;64.07;94216.25;5014925;28;20172;-79
2023/03/12 04:58:45;;;;;;;4.97;3.40;;;;;;;3.55;63.94;94220.53;5014516;28;20207;-78
2023/03/12 05:01:26;;;;;;;5.57;3.23;;;;;;;3.56;64.63;94222.16;5014998;28;20188;-78
2023/03/12 05:03:52;;;;;;;5.13;2.97;;;;;;;3.57;64.47;94224.59;5008146;28;20184;-78
2023/03/12 05:06:18;;;;;;;9.17;3.53;;;;;;;3.48;64.17;94220.47;5014294;28;20180;-78
2023/03/12 05:08:44;;;;;;;7.80;3.80;;;;;;;3.45;64.59;94225.25;5006527;28;20560;-79
2023/03/12 05:11:09;;;;;;;4.63;3.17;;;;;;;3.29;64.66;94216.66;5014607;28;20184;-78
2023/03/12 05:13:34;;;;;;;6.37;3.47;;;;;;;3.35;64.66;94246.34;5014156;28;20180;-78
2023/03/12 05:16:00;;;;;;;8.10;3.90;;;;;;;3.13;65.14;94248.06;5013730;28;20668;-78
2023/03/12 05:18:25;;;;;;;7.43;4.40;;;;;;;3.37;65.73;94245.16;5013392;28;20191;-78
2023/03/12 05:21:10;;;;;;;5.43;3.43;;;;;;;4.03;64.00;94240.69;5013449;28;20291;-78
2023/03/12 05:23:35;;;;;;;8.83;3.53;;;;;;;4.62;62.38;94250.81;5013701;28;20675;-80
2023/03/12 05:26:01;;;;;;;10.33;4.60;;;;;;;5.88;60.02;94254.91;5014890;28;20200;-80
2023/03/12 05:28:27;;;;;;;10.97;5.70;;;;;;;7.00;55.10;94265.47;5013038;28;20200;-80
2023/03/12 05:30:55;;;;;;;7.67;4.00;;;;;;;7.90;53.66;94267.19;5014105;28;20279;-80
2023/03/12 05:33:21;;;;;;;9.13;4.33;;;;;;;8.52;51.70;94266.47;5013795;28;20181;-78
2023/03/12 05:35:46;;;;;;;4.73;3.50;;;;;;;9.29;50.37;94244.19;5013949;28;20381;-78
2023/03/12 05:38:11;;;;;;;7.33;4.40;;;;;;;10.39;47.97;94267.75;5013908;28;20172;-78
2023/03/12 05:40:37;;;;;;;7.87;3.57;;;;;;;12.29;44.96;94266.25;5013854;28;20651;-78
2023/03/12 05:43:02;;;;;;;4.23;2.90;;;;;;;14.07;40.19;94263.72;5013977;28;20189;-79
2023/03/12 05:45:28;;;;;;;5.03;2.60;;;;;;;15.65;35.82;94274.78;5013894;28;20200;-79
2023/03/12 05:47:53;;;;;;;7.53;2.73;;;;;;;17.38;31.84;94279.56;5013289;28;20584;-79
2023/03/12 05:50:19;;;;;;;2.65;2.35;;;;;;;18.76;29.21;94280.78;5013717;28;20172;-79
2023/03/12 05:52:44;;;;;;;4.43;2.60;;;;;;;19.56;26.06;94259.94;5014195;28;20659;-79
2023/03/12 05:55:10;;;;;;;4.72;2.22;;;;;;;20.71;25.11;94275.78;5014019;28;20180;-79
2023/03/12 05:57:35;;;;;;;7.75;3.50;;;;;;;21.65;23.75;94283.75;5013304;28;20200;-80
2023/03/12 06:00:01;;;;;;;4.88;3.17;;;;;;;21.92;22.47;94283.03;5013758;28;20624;-80
2023/03/12 06:02:26;;;;;;;2.92;2.40;;;;;;;22.30;22.19;94290.94;5010346;28;20184;-79
2023/03/12 06:04:51;;;;;;;4.55;2.85;;;;;;;22.67;21.30;94297.97;5012880;28;20263;-80
2023/03/12 06:07:17;;;;;;;5.30;3.17;;;;;;;22.07;21.96;94261.31;5014038;28;20228;-81
2023/03/12 06:09:42;;;;;;;3.75;2.50;;;;;;;21.54;21.38;94297.59;5014254;28;20801;-79
2023/03/12 06:12:08;;;;;;;4.35;2.60;;;;;;;21.53;21.59;94299.50;5012608;28;20208;-79
2023/03/12 06:14:33;;;;;;;3.67;2.75;;;;;;;22.02;21.38;94303.53;5011863;28;20181;-78
2023/03/12 06:16:59;;;;;;;4.47;2.35;;;;;;;21.93;21.13;94284.63;5010245;28;20188;-78
2023/03/12 06:19:24;;;;;;;7.03;2.83;;;;;;;22.22;21.05;94303.16;5013337;28;20270;-79
2023/03/12 06:21:50;;;;;;;3.10;2.40;;;;;;;21.49;21.33;94306.53;5013850;28;20176;-79
2023/03/12 06:24:15;;;;;;;3.67;2.38;;;;;;;21.48;21.36;94288.84;5012973;28;20653;-80
2023/03/12 06:26:41;;;;;;;3.55;2.85;;;;;;;22.45;20.71;94315.59;5013284;28;20183;-80
2023/03/12 06:29:06;;;;;;;4.13;3.00;;;;;;;23.03;20.73;94323.00;5013165;28;20184;-80
2023/03/12 06:31:31;;;;;;;2.50;2.03;;;;;;;22.64;20.47;94331.59;5013115;28;20624;-80
2023/03/12 06:33:57;;;;;;;3.80;2.30;;;;;;;22.79;20.07;94314.41;5012804;28;20255;-78
2023/03/12 06:36:23;;;;;;;2.88;2.38;;;;;;;23.40;19.97;94345.31;4995689;28;20184;-80
2023/03/12 06:38:51;;;;;;;3.65;2.50;;;;;;;24.20;19.44;94329.13;5013300;28;20184;-81
2023/03/12 06:41:19;;;;;;;3.28;2.50;;;;;;;24.79;18.04;94359.31;5013011;28;20180;-79
2023/03/12 06:43:45;;;;;;;5.37;2.40;;;;;;;24.41;18.73;94359.78;5013556;28;20172;-80
2023/03/12 06:46:13;;;;;;;3.30;2.40;;;;;;;24.06;18.95;94356.09;5021152;28;20915;-79
2023/03/12 06:48:40;;;;;;;2.60;2.15;;;;;;;23.03;19.29;94343.69;5011650;28;20203;-79
2023/03/12 06:51:09;;;;;;;3.78;2.15;;;;;;;22.96;19.91;94362.91;5013569;28;20181;-80
2023/03/12 06:53:35;;;;;;;7.25;1.90;;;;;;;22.64;20.40;94368.34;5011962;28;20236;-81
2023/03/12 06:56:01;;;;;;;2.40;2.05;;;;;;;23.05;20.13;94374.53;5012412;28;20659;-81
2023/03/12 06:58:27;;;;;;;2.00;1.80;;;;;;;23.40;19.20;94374.84;5012417;28;20564;-80
2023/03/12 07:00:54;;;;;;;2.78;2.03;;;;;;;23.14;19.05;94385.34;5012136;28;20187;-80
2023/03/12 07:03:19;;;;;;;3.65;2.38;;;;;;;23.11;19.08;94381.38;4996148;28;20173;-80
2023/03/12 07:05:47;;;;;;;10.75;7.35;;;;;;;22.89;19.22;94389.34;5011183;28;20721;-82
2023/03/12 07:08:12;;;;;;;16.50;10.25;;;;;;;22.43;21.66;94378.66;5012589;28;20180;-79
2023/03/12 07:10:38;;;;;;;3.97;3.05;;;;;;;21.35;20.57;94380.66;5012320;28;20183;-79
2023/03/12 07:13:04;;;;;;;7.30;4.70;;;;;;;20.81;21.92;94389.91;5012324;28;20173;-80
2023/03/12 07:15:30;;;;;;;5.35;2.95;;;;;;;20.15;21.99;94379.09;5011742;28;20172;-80
2023/03/12 07:17:59;;;;;;;3.50;2.28;;;;;;;19.22;22.40;94375.47;5012103;28;20689;-79
2023/03/12 07:20:25;;;;;;;5.63;2.85;;;;;;;18.71;23.94;94400.81;5012779;28;20180;-78
2023/03/12 07:22:50;;;;;;;3.22;2.08;;;;;;;17.94;24.10;94404.66;5022292;28;20181;-80
2023/03/12 07:25:16;;;;;;;3.55;2.35;;;;;;;17.35;25.04;94394.50;5012573;28;20226;-82
2023/03/12 07:27:41;;;;;;;4.28;2.30;;;;;;;16.76;25.87;94407.38;5012410;28;20648;-80
2023/03/12 07:30:07;;;;;;;2.00;1.70;;;;;;;16.64;26.35;94402.25;5012067;28;20188;-79
2023/03/12 07:32:34;;;;;;;3.97;2.35;;;;;;;16.58;26.61;94408.59;5012319;28;20246;-79
2023/03/12 07:34:59;;;;;;;6.00;3.03;;;;;;;16.44;26.79;94408.22;5012391;28;20200;-78
2023/03/12 07:37:24;;;;;;;4.75;3.15;;;;;;;16.16;27.04;94417.38;5012443;28;20211;-78
2023/03/12 07:39:52;;;;;;;2.30;2.08;;;;;;;16.18;27.44;94415.25;5012121;28;20546;-79
2023/03/12 07:42:17;;;;;;;3.30;2.30;;;;;;;15.75;27.08;94391.59;5012252;28;20176;-79
2023/03/12 07:44:42;;;;;;;2.58;2.03;;;;;;;15.53;28.43;94380.25;5011760;28;20197;-79
2023/03/12 07:47:08;;;;;;;5.43;2.50;;;;;;;15.45;29.14;94424.75;5011491;28;20191;-79
2023/03/12 07:49:33;;;;;;;4.23;2.50;;;;;;;14.98;28.54;94416.56;5011487;28;20180;-79
2023/03/12 07:51:59;;;;;;;4.40;2.47;;;;;;;14.50;29.31;94433.22;5010879;28;20188;-79
2023/03/12 07:54:29;;;;;;;4.40;2.40;;;;;;;14.20;29.15;94430.13;5010741;28;20176;-79
2023/03/12 07:56:55;;;;;;;4.03;2.40;;;;;;;14.00;30.33;94413.97;5012078;28;20723;-79
2023/03/12 07:59:21;;;;;;;4.57;3.03;;;;;;;13.72;30.59;94391.06;5012483;28;20651;-78
2023/03/12 08:01:47;;;;;;;4.40;2.40;;;;;;;13.78;29.82;94417.34;5010256;28;20180;-78
2023/03/12 08:04:12;;;;;;;3.60;2.27;;;;;;;13.62;30.78;94422.63;5011169;28;20215;-78
2023/03/12 08:06:41;;;;;;;6.40;3.00;;;;;;;13.24;30.95;94424.09;5011237;28;20177;-77
2023/03/12 08:09:07;;;;;;;4.77;3.43;;;;;;;12.86;31.45;94387.72;5010288;28;20180;-79
2023/03/12 08:11:33;;;;;;;7.00;3.20;;;;;;;12.59;31.33;94428.91;5012765;28;20713;-79
2023/03/12 08:13:59;;;;;;;2.90;2.07;;;;;;;12.41;32.69;94433.31;5015373;28;20251;-79
2023/03/12 08:16:24;;;;;;;3.03;2.40;;;;;;;12.12;32.13;94425.53;5014930;28;20186;-79
2023/03/12 08:18:50;;;;;;;5.77;2.30;;;;;;;11.85;33.38;94455.00;5015294;28;20662;-78
2023/03/12 08:21:15;;;;;;;3.57;2.33;;;;;;;11.89;33.64;94436.91;5014521;28;20188;-78
2023/03/12 08:23:41;;;;;;;4.37;2.70;;;;;;;12.05;34.97;94446.75;5014291;28;20303;-78
2023/03/12 08:26:07;;;;;;;5.00;2.97;;;;;;;12.31;34.18;94427.81;5015099;28;20192;-81
2023/03/12 08:28:32;;;;;;;3.03;2.20;;;;;;;12.50;32.92;94401.28;4997858;28;20687;-82
2023/03/12 08:30:59;;;;;;;4.23;2.13;;;;;;;12.56;32.80;94447.84;5015735;28;20181;-80
2023/03/12 08:33:24;;;;;;;4.20;2.50;;;;;;;12.80;33.34;94457.31;5015231;28;20176;-80
2023/03/12 08:35:50;;;;;;;3.70;2.30;;;;;;;12.69;30.58;94445.78;5015076;28;20181;-79
2023/03/12 08:38:16;;;;;;;2.57;2.17;;;;;;;12.51;31.84;94458.31;5015728;28;20193;-78
2023/03/12 08:40:42;;;;;;;3.00;2.17;;;;;;;12.38;31.63;94454.88;5014231;28;20184;-80
2023/03/12 08:43:07;;;;;;;2.87;2.13;;;;;;;12.13;32.54;94467.53;5013681;28;20549;-80
2023/03/12 08:45:37;;;;;;;2.60;2.33;;;;;;;11.47;32.23;94465.94;5013216;28;20259;-81
2023/03/12 08:48:04;;;;;;;2.53;1.93;;;;;;;11.68;32.72;94465.38;5017577;28;20188;-77
2023/03/12 08:50:31;;;;;;;1.80;1.70;;;;;;;11.69;32.26;94451.19;5013066;28;20239;-79
2023/03/12 08:52:57;;;;;;;3.23;1.73;;;;;;;11.72;33.74;94463.13;5013749;28;20188;-80
2023/03/12 08:55:22;;;;;;;1.83;1.70;;;;;;;11.75;33.90;94440.81;5013180;28;20172;-80
2023/03/12 08:57:48;;;;;;;3.67;2.40;;;;;;;12.15;33.75;94433.81;5010819;28;20219;-81
2023/03/12 09:00:15;;;;;;;6.07;2.90;;;;;;;12.51;32.23;94463.59;5012416;28;20186;-79
2023/03/12 09:02:43;;;;;;;4.03;2.17;;;;;;;12.66;31.86;94461.28;5012758;28;20596;-78
2023/03/12 09:05:08;;;;;;;3.73;2.20;;;;;;;12.70;33.16;94478.28;5012589;28;20262;-79
2023/03/12 09:07:34;;;;;;;3.63;1.83;;;;;;;12.58;32.06;94453.72;5013104;28;20574;-79
2023/03/12 09:09:59;;;;;;;3.70;2.47;;;;;;;12.67;33.22;94458.41;5013661;28;20180;-78
2023/03/12 09:12:25;;;;;;;5.70;2.43;;;;;;;12.31;33.13;94474.53;5019477;28;20192;-77
2023/03/12 09:14:51;;;;;;;4.13;2.90;;;;;;;12.15;34.23;94481.28;5018620;28;20999;-77
2023/03/12 09:17:16;;;;;;;4.80;3.30;;;;;;;12.11;34.36;94482.00;5011855;28;20207;-76
2023/03/12 09:19:42;;;;;;;2.90;2.47;;;;;;;12.02;34.44;94474.41;5008610;28;20188;-78
2023/03/12 09:22:07;;;;;;;3.20;2.10;;;;;;;11.92;34.31;94476.00;5010352;28;20258;-77
2023/03/12 09:24:33;;;;;;;3.33;2.17;;;;;;;12.18;35.30;94469.50;5010434;28;20231;-77
2023/03/12 09:27:01;;;;;;;4.97;2.87;;;;;;;12.26;34.94;94480.50;5009118;28;20184;-77
2023/03/12 09:29:26;;;;;;;5.23;2.20;;;;;;;12.01;34.93;94474.66;5006628;28;20196;-77
2023/03/12 09:31:52;;;;;;;2.77;2.20;;;;;;;11.53;34.44;94462.38;5010935;28;20254;-78
2023/03/12 09:34:17;;;;;;;3.23;2.23;;;;;;;11.34;34.93;94466.91;5009684;28;20180;-77
2023/03/12 09:36:43;;;;;;;5.40;3.30;;;;;;;11.23;37.46;94469.53;5012027;28;20185;-77
2023/03/12 09:39:08;;;;;;;13.13;6.70;;;;;;;11.33;36.85;94459.22;5010661;28;20571;-76
2023/03/12 09:41:39;;;;;;;3.23;2.47;;;;;;;11.28;37.03;94459.13;5008488;28;21808;-76
2023/03/12 09:44:11;;;;;;;3.90;2.63;;;;;;;11.27;38.48;94458.31;5012259;28;20180;-77
2023/03/12 09:46:49;;;;;;;5.17;2.87;;;;;;;11.49;39.00;94420.91;5014813;28;20242;-76
2023/03/12 09:49:47;;;;;;;4.10;2.57;;;;;;;11.64;36.39;94456.34;5006842;28;20187;-77
2023/03/12 09:52:29;;;;;;;4.87;2.53;;;;;;;11.54;37.50;94456.09;4991774;28;20568;-78
2023/03/12 09:55:15;;;;;;;2.80;1.83;;;;;;;11.19;36.63;94444.66;5013723;28;20215;-77
2023/03/12 09:57:42;;;;;;;4.07;2.33;;;;;;;10.96;36.33;94445.38;5009624;28;20231;-77
2023/03/12 10:00:17;;;;;;;2.40;1.87;;;;;;;10.82;36.07;94431.56;5012958;28;22056;-78
2023/03/12 10:02:48;;;;;;;6.63;2.47;;;;;;;10.91;37.76;94467.09;5010918;28;20643;-78
2023/03/12 10:05:25;;;;;;;3.63;2.27;;;;;;;11.06;36.42;94466.72;5010990;28;20208;-77
2023/03/12 10:08:02;;;;;;;2.17;1.90;;;;;;;10.86;37.00;94442.47;5008973;28;20549;-78
2023/03/12 10:10:49;;;;;;;4.03;2.43;;;;;;;10.85;37.12;94433.75;5007224;28;20180;-79
2023/03/12 10:13:42;;;;;;;4.73;3.27;;;;;;;10.86;38.10;94435.38;5011352;28;20180;-80
2023/03/12 10:16:23;;;;;;;3.33;2.23;;;;;;;10.88;38.16;94445.69;5004873;28;20561;-79
2023/03/12 10:19:07;;;;;;;1.97;1.77;;;;;;;10.82;37.78;94457.09;5009444;28;20224;-75
2023/03/12 10:21:36;;;;;;;2.77;2.17;;;;;;;10.30;36.92;94455.88;5008495;28;20670;-78
2023/03/12 10:24:49;;;;;;;3.83;2.40;;;;;;;10.34;37.24;94446.53;5008475;28;20652;-76
2023/03/12 10:27:16;;;;;;;4.30;2.40;;;;;;;10.54;39.10;94439.22;5010075;28;20280;-81
2023/03/12 10:29:45;;;;;;;3.23;2.40;;;;;;;10.67;37.98;94454.03;5010872;28;20180;-83
2023/03/12 10:32:24;;;;;;;4.73;2.80;;;;;;;10.61;38.07;94445.22;5011243;28;20246;-83
2023/03/12 10:35:02;;;;;;;3.27;2.10;;;;;;;10.42;36.64;94452.31;5010949;28;20583;-79
2023/03/12 10:37:29;;;;;;;3.73;2.87;;;;;;;10.27;37.99;94433.47;5008699;28;21000;-80
2023/03/12 10:39:55;;;;;;;2.40;2.00;;;;;;;10.59;37.76;94452.53;5008358;28;20263;-80
2023/03/12 10:42:23;;;;;;;3.80;1.40;;;;;;;10.63;37.10;94456.34;5014907;28;20276;-80
2023/03/12 10:44:57;;;;;;;2.43;2.23;;;;;;;10.61;36.17;94466.28;5017250;28;20196;-80
2023/03/12 10:47:38;;;;;;;3.67;2.43;;;;;;;10.57;35.46;94451.94;5011193;28;20739;-78
2023/03/12 10:50:23;;;;;;;4.77;2.40;;;;;;;10.43;35.72;94455.75;5012271;28;20625;-77
2023/03/12 10:52:53;;;;;;;4.70;2.70;;;;;;;10.43;37.06;94455.75;5014183;28;20209;-77
2023/03/12 10:55:23;;;;;;;3.33;2.23;;;;;;;10.47;36.96;94457.72;5010636;28;20185;-77
2023/03/12 10:57:49;;;;;;;4.10;2.80;;;;;;;10.57;37.07;94459.81;5004331;28;20194;-78
2023/03/12 11:00:25;;;;;;;5.03;3.50;;;;;;;10.62;37.94;94457.34;5009388;28;20176;-78
2023/03/12 11:03:19;;;;;;;3.43;2.60;;;;;;;10.68;37.51;94447.75;5011510;28;20183;-78
2023/03/12 11:05:47;;;;;;;4.57;1.90;;;;;;;10.59;36.50;94418.31;5006698;28;20208;-78
2023/03/12 11:08:26;;;;;;;6.40;2.77;;;;;;;10.62;36.32;94435.50;5007635;28;20655;-78
2023/03/12 11:10:54;;;;;;;2.93;2.40;;;;;;;9.61;35.24;94404.34;5008688;28;20178;-78
2023/03/12 11:13:30;;;;;;;3.20;2.00;;;;;;;9.79;37.65;94436.72;5011095;28;20180;-78
2023/03/12 11:15:59;;;;;;;3.63;2.10;;;;;;;9.97;35.73;94437.78;5013848;28;20211;-78
2023/03/12 11:18:36;;;;;;;3.93;2.00;;;;;;;10.09;38.34;94439.47;5002864;28;20176;-78
2023/03/12 11:21:07;;;;;;;2.70;1.90;;;;;;;10.21;35.95;94429.06;5009826;28;20215;-77
2023/03/12 11:23:33;;;;;;;5.60;2.80;;;;;;;9.89;37.45;94438.84;5008733;28;20184;-78
2023/03/12 11:26:00;;;;;;;2.63;2.17;;;;;;;10.08;38.56;94437.88;5007303;28;20228;-77
2023/03/12 11:28:36;;;;;;;3.03;2.00;;;;;;;10.04;37.12;94393.81;5006399;28;20188;-78
2023/03/12 11:31:04;;;;;;;2.53;1.80;;;;;;;9.84;36.87;94422.94;5007849;28;20195;-77
2023/03/12 11:33:29;;;;;;;6.00;3.60;;;;;;;9.97;37.97;94427.25;5011555;28;20184;-78
2023/03/12 11:36:14;;;;;;;5.63;3.00;;;;;;;9.96;38.00;94438.78;5007484;28;20184;-78
2023/03/12 11:38:57;;;;;;;8.13;3.90;;;;;;;9.80;37.72;94430.44;4987271;28;20664;-78
2023/03/12 11:41:28;;;;;;;4.13;2.47;;;;;;;9.81;37.15;94444.41;5008458;28;20181;-79